createdAt,value
2018-04-09T00:01:39.486Z,99.90
2018-04-09T00:04:08.218Z,99.90
2018-04-09T00:06:36.279Z,99.90
2018-04-09T00:09:06.061Z,99.90
2018-04-09T00:11:34.793Z,99.90
2018-04-09T00:14:04.262Z,99.90
2018-04-09T00:16:32.979Z,99.90
2018-04-09T00:19:03.346Z,99.90
2018-04-09T00:21:32.507Z,99.90
2018-04-09T00:24:01.880Z,99.90
2018-04-09T00:26:31.374Z,99.90
2018-04-09T00:29:00.115Z,99.90
2018-04-09T00:31:28.874Z,99.90
2018-04-09T00:33:58.135Z,99.90
2018-04-09T00:36:27.527Z,99.90
2018-04-09T00:38:56.797Z,99.90
2018-04-09T00:41:26.150Z,99.90
2018-04-09T00:43:56.211Z,99.90
2018-04-09T00:46:25.703Z,99.90
2018-04-09T00:48:55.190Z,99.90
2018-04-09T00:51:23.929Z,99.90
2018-04-09T00:53:59.805Z,99.90
2018-04-09T00:56:29.277Z,99.90
2018-04-09T00:58:58.805Z,99.90
2018-04-09T01:01:27.563Z,99.90
2018-04-09T01:03:58.726Z,99.90
2018-04-09T01:06:27.240Z,99.90
2018-04-09T01:08:56.197Z,99.90
2018-04-09T01:11:24.944Z,99.90
2018-04-09T01:13:54.453Z,99.90
2018-04-09T01:16:22.859Z,99.90
2018-04-09T01:18:52.351Z,99.90
2018-04-09T01:21:21.078Z,99.90
2018-04-09T01:23:49.483Z,99.90
2018-04-09T01:26:18.222Z,99.90
2018-04-09T01:29:00.344Z,99.90
2018-04-09T01:31:30.315Z,99.90
2018-04-09T01:33:59.036Z,99.90
2018-04-09T01:36:28.831Z,99.90
2018-04-09T01:38:57.909Z,99.90
2018-04-09T01:41:26.634Z,99.90
2018-04-09T01:43:55.352Z,99.90
2018-04-09T01:46:24.075Z,99.90
2018-04-09T01:48:53.225Z,99.90
2018-04-09T01:51:21.955Z,99.90
2018-04-09T01:53:50.671Z,99.90
2018-04-09T01:56:20.160Z,99.90
2018-04-09T01:58:48.911Z,99.90
2018-04-09T02:01:18.990Z,99.90
2018-04-09T02:03:48.484Z,99.90
2018-04-09T02:06:18.014Z,99.90
2018-04-09T02:08:47.222Z,99.90
2018-04-09T02:11:15.936Z,99.90
2018-04-09T02:13:44.662Z,99.90
2018-04-09T02:16:13.057Z,99.90
2018-04-09T02:18:44.044Z,99.90
2018-04-09T02:21:13.206Z,99.90
2018-04-09T02:23:41.967Z,99.90
2018-04-09T02:26:10.727Z,99.90
2018-04-09T02:28:40.247Z,99.90
2018-04-09T02:31:09.190Z,99.90
2018-04-09T02:33:37.925Z,99.90
2018-04-09T02:36:07.472Z,99.90
2018-04-09T02:38:36.632Z,99.90
2018-04-09T02:41:05.812Z,99.90
2018-04-09T02:43:34.535Z,99.90
2018-04-09T02:46:03.674Z,99.90
2018-04-09T02:48:32.407Z,99.90
2018-04-09T02:51:03.046Z,99.90
2018-04-09T02:53:31.539Z,99.90
2018-04-09T02:56:01.228Z,99.90
2018-04-09T02:58:29.957Z,99.90
2018-04-09T03:00:58.691Z,99.90
2018-04-09T03:03:27.210Z,99.90
2018-04-09T03:05:56.477Z,99.90
2018-04-09T03:08:24.909Z,99.90
2018-04-09T03:10:54.543Z,99.90
2018-04-09T03:13:23.271Z,99.90
2018-04-09T03:15:51.996Z,99.90
2018-04-09T03:18:20.378Z,99.90
2018-04-09T03:20:49.526Z,99.90
2018-04-09T03:23:18.991Z,99.90
2018-04-09T03:25:47.715Z,99.90
2018-04-09T03:28:16.445Z,99.90
2018-04-09T03:30:45.940Z,99.90
2018-04-09T03:33:14.684Z,99.90
2018-04-09T03:35:43.419Z,99.90
2018-04-09T03:38:12.449Z,99.90
2018-04-09T03:40:41.194Z,99.90
2018-04-09T03:43:09.928Z,99.90
2018-04-09T03:45:38.431Z,99.90
2018-04-09T03:48:07.194Z,99.90
2018-04-09T03:50:35.911Z,99.90
2018-04-09T03:53:05.621Z,99.90
2018-04-09T03:55:34.634Z,99.90
2018-04-09T03:58:03.366Z,99.90
2018-04-09T04:00:32.083Z,99.90
2018-04-09T04:03:00.480Z,99.90
2018-04-09T04:05:29.212Z,99.90
2018-04-09T04:07:58.718Z,99.90
2018-04-09T04:10:28.942Z,99.90
2018-04-09T04:12:58.426Z,99.90
2018-04-09T04:15:38.347Z,99.90
2018-04-09T04:18:18.099Z,99.90
2018-04-09T04:20:58.632Z,99.90
2018-04-09T04:23:27.370Z,99.90
2018-04-09T04:25:56.493Z,99.90
2018-04-09T04:28:24.923Z,99.90
2018-04-09T04:30:55.476Z,99.90
2018-04-09T04:33:24.192Z,99.90
2018-04-09T04:35:53.696Z,99.90
2018-04-09T04:38:23.179Z,99.90
2018-04-09T04:40:51.913Z,99.90
2018-04-09T04:43:20.414Z,99.90
2018-04-09T04:45:49.592Z,99.90
2018-04-09T04:48:18.327Z,99.90
2018-04-09T04:50:47.042Z,99.90
2018-04-09T04:53:16.543Z,99.90
2018-04-09T04:55:45.254Z,99.90
2018-04-09T04:58:13.988Z,99.90
2018-04-09T05:00:42.711Z,99.90
2018-04-09T05:03:12.223Z,99.90
2018-04-09T05:05:41.719Z,99.90
2018-04-09T05:08:11.707Z,99.90
2018-04-09T05:10:40.932Z,99.90
2018-04-09T05:13:10.423Z,99.90
2018-04-09T05:15:39.143Z,99.90
2018-04-09T05:18:08.647Z,99.90
2018-04-09T05:20:38.145Z,99.90
2018-04-09T05:23:07.051Z,99.90
2018-04-09T05:25:36.546Z,99.90
2018-04-09T05:28:05.275Z,99.90
2018-04-09T05:30:34.618Z,99.90
2018-04-09T05:33:03.102Z,99.90
2018-04-09T05:35:32.636Z,99.90
2018-04-09T05:38:02.132Z,99.90
2018-04-09T05:40:31.640Z,99.90
2018-04-09T05:43:04.710Z,99.90
2018-04-09T05:45:35.261Z,99.90
2018-04-09T05:48:04.750Z,99.90
2018-04-09T05:50:33.351Z,99.90
2018-04-09T05:53:02.941Z,99.90
2018-04-09T05:55:31.770Z,99.90
2018-04-09T05:58:01.040Z,99.90
2018-04-09T06:00:29.753Z,99.90
2018-04-09T06:02:58.475Z,99.90
2018-04-09T06:05:27.199Z,99.90
2018-04-09T06:07:55.910Z,99.90
2018-04-09T06:10:24.628Z,99.90
2018-04-09T06:12:54.259Z,99.90
2018-04-09T06:15:22.995Z,99.90
2018-04-09T06:17:51.711Z,99.90
2018-04-09T06:20:20.429Z,99.90
2018-04-09T06:22:49.149Z,99.90
2018-04-09T06:25:19.260Z,99.90
2018-04-09T06:27:48.740Z,99.90
2018-04-09T06:30:17.446Z,99.90
2018-04-09T06:32:46.144Z,99.90
2018-04-09T06:35:14.854Z,99.90
2018-04-09T06:37:43.335Z,99.90
2018-04-09T06:40:12.051Z,99.90
2018-04-09T06:42:40.765Z,99.90
2018-04-09T06:45:09.275Z,99.90
2018-04-09T06:47:38.164Z,99.90
2018-04-09T06:50:07.416Z,99.90
2018-04-09T06:52:36.135Z,99.90
2018-04-09T06:55:04.290Z,99.90
2018-04-09T06:57:32.782Z,99.90
2018-04-09T07:00:01.264Z,99.90
2018-04-09T07:02:29.974Z,99.90
2018-04-09T07:04:58.491Z,99.90
2018-04-09T07:07:26.980Z,99.90
2018-04-09T07:09:56.385Z,99.90
2018-04-09T07:12:25.368Z,99.90
2018-04-09T07:14:54.091Z,99.90
2018-04-09T07:17:23.692Z,99.90
2018-04-09T07:19:52.420Z,99.90
2018-04-09T07:22:21.730Z,99.90
2018-04-09T07:24:51.211Z,99.90
2018-04-09T07:27:20.508Z,99.90
2018-04-09T07:29:48.894Z,99.90
2018-04-09T07:32:17.396Z,99.90
2018-04-09T07:34:46.886Z,99.90
2018-04-09T07:37:15.379Z,99.90
2018-04-09T07:39:45.190Z,99.90
2018-04-09T07:42:14.459Z,99.90
2018-04-09T07:44:43.195Z,99.90
2018-04-09T07:47:11.923Z,99.90
2018-04-09T07:49:40.645Z,99.90
2018-04-09T07:52:09.371Z,99.90
2018-04-09T07:54:38.089Z,99.90
2018-04-09T07:57:06.808Z,99.90
2018-04-09T07:59:35.621Z,99.90
2018-04-09T08:02:05.104Z,99.90
2018-04-09T08:04:33.817Z,99.90
2018-04-09T08:07:02.967Z,99.80
2018-04-09T08:09:31.709Z,99.80
2018-04-09T08:12:00.438Z,99.00
2018-04-09T08:14:29.158Z,98.70
2018-04-09T08:16:57.876Z,98.00
2018-04-09T08:19:27.404Z,97.00
2018-04-09T08:21:56.279Z,97.00
2018-04-09T08:24:24.996Z,96.60
2018-04-09T08:26:53.478Z,95.20
2018-04-09T08:29:22.365Z,94.20
2018-04-09T08:31:51.083Z,93.60
2018-04-09T08:34:19.811Z,92.30
2018-04-09T08:36:48.543Z,91.60
2018-04-09T08:39:17.264Z,90.90
2018-04-09T08:41:46.756Z,87.50
2018-04-09T08:44:15.478Z,87.10
2018-04-09T08:46:44.413Z,84.50
2018-04-09T08:49:13.266Z,82.10
2018-04-09T08:51:41.982Z,76.00
2018-04-09T08:54:10.712Z,76.50
2018-04-09T08:56:39.435Z,74.80
2018-04-09T08:59:08.175Z,70.70
2018-04-09T09:01:36.908Z,68.90
2018-04-09T09:04:05.647Z,68.90
2018-04-09T09:06:34.364Z,67.70
2018-04-09T09:09:03.282Z,66.80
2018-04-09T09:11:31.994Z,66.00
2018-04-09T09:14:00.715Z,65.00
2018-04-09T09:16:29.430Z,64.20
2018-04-09T09:18:58.928Z,60.30
2018-04-09T09:21:27.318Z,60.10
2018-04-09T09:23:56.815Z,59.30
2018-04-09T09:26:26.296Z,58.90
2018-04-09T09:28:55.009Z,58.70
2018-04-09T09:31:24.491Z,56.10
2018-04-09T09:33:53.211Z,56.10
2018-04-09T09:36:21.938Z,55.10
2018-04-09T09:38:50.655Z,54.90
2018-04-09T09:41:19.377Z,54.30
2018-04-09T09:43:48.090Z,54.20
2018-04-09T09:46:16.811Z,53.40
2018-04-09T09:48:45.526Z,53.50
2018-04-09T09:51:15.013Z,51.60
2018-04-09T09:53:43.747Z,51.60
2018-04-09T09:56:12.526Z,51.20
2018-04-09T09:58:41.246Z,49.10
2018-04-09T10:01:10.155Z,49.40
2018-04-09T10:03:38.878Z,49.30
2018-04-09T10:06:08.484Z,47.70
2018-04-09T10:08:37.970Z,47.50
2018-04-09T10:11:06.701Z,47.40
2018-04-09T10:13:35.417Z,46.40
2018-04-09T10:16:04.142Z,44.80
2018-04-09T10:18:32.859Z,45.10
2018-04-09T10:21:01.604Z,45.40
2018-04-09T10:23:30.330Z,43.60
2018-04-09T10:25:59.052Z,44.30
2018-04-09T10:28:28.281Z,44.30
2018-04-09T10:30:57.769Z,43.50
2018-04-09T10:33:26.500Z,42.90
2018-04-09T10:35:56.004Z,40.40
2018-04-09T10:38:25.510Z,41.00
2018-04-09T10:40:54.658Z,40.40
2018-04-09T10:43:23.391Z,40.40
2018-04-09T10:45:52.878Z,41.00
2018-04-09T10:48:21.255Z,41.00
2018-04-09T10:50:49.989Z,41.00
2018-04-09T10:53:18.704Z,41.00
2018-04-09T10:55:47.099Z,40.50
2018-04-09T10:58:15.824Z,40.10
2018-04-09T11:00:45.319Z,38.20
2018-04-09T11:03:14.808Z,37.70
2018-04-09T11:05:43.534Z,37.80
2018-04-09T11:08:12.314Z,38.30
2018-04-09T11:10:41.802Z,37.40
2018-04-09T11:13:11.292Z,37.40
2018-04-09T11:15:40.626Z,35.30
2018-04-09T11:18:09.078Z,35.30
2018-04-09T11:20:38.308Z,36.10
2018-04-09T11:23:06.764Z,36.10
2018-04-09T11:25:34.882Z,36.10
2018-04-09T11:28:02.994Z,35.00
2018-04-09T11:30:31.728Z,35.00
2018-04-09T11:33:00.189Z,34.60
2018-04-09T11:35:28.922Z,35.30
2018-04-09T11:37:57.662Z,35.70
2018-04-09T11:40:26.902Z,34.10
2018-04-09T11:42:55.353Z,34.10
2018-04-09T11:45:23.803Z,34.10
2018-04-09T11:47:52.249Z,33.40
2018-04-09T11:50:20.687Z,33.50
2018-04-09T11:52:49.898Z,31.90
2018-04-09T11:55:18.337Z,31.90
2018-04-09T12:00:14.170Z,32.30
2018-04-09T12:02:42.617Z,31.70
2018-04-09T12:05:11.057Z,32.60
2018-04-09T12:07:40.272Z,32.80
2018-04-09T12:10:08.764Z,32.80
2018-04-09T12:12:37.210Z,33.00
2018-04-09T12:15:05.005Z,33.20
2018-04-09T12:17:33.452Z,32.90
2018-04-09T12:20:01.901Z,32.20
2018-04-09T12:22:30.344Z,32.50
2018-04-09T12:24:58.793Z,32.70
2018-04-09T12:27:27.263Z,32.00
2018-04-09T12:29:55.720Z,32.30
2018-04-09T12:32:23.845Z,31.90
2018-04-09T12:34:53.057Z,32.40
2018-04-09T12:37:22.268Z,30.00
2018-04-09T12:39:50.749Z,30.00
2018-04-09T12:42:19.206Z,31.40
2018-04-09T12:44:47.649Z,32.00
2018-04-09T12:47:15.788Z,32.00
2018-04-09T12:49:45.177Z,31.10
2018-04-09T12:52:14.405Z,31.30
2018-04-09T12:54:42.854Z,31.30
2018-04-09T12:57:12.053Z,31.40
2018-04-09T12:59:40.917Z,30.40
2018-04-09T13:02:09.365Z,30.40
2018-04-09T13:04:37.812Z,31.40
2018-04-09T13:07:06.265Z,31.00
2018-04-09T13:09:34.721Z,30.60
2018-04-09T13:12:03.181Z,30.60
2018-04-09T13:14:31.642Z,30.90
2018-04-09T13:17:00.080Z,31.60
2018-04-09T13:19:28.530Z,31.70
2018-04-09T13:21:56.973Z,30.70
2018-04-09T13:24:26.179Z,29.40
2018-04-09T13:26:55.392Z,29.30
2018-04-09T13:29:23.833Z,29.30
2018-04-09T13:31:52.280Z,29.70
2018-04-09T13:34:20.724Z,30.00
2018-04-09T13:36:49.931Z,30.30
2018-04-09T13:39:18.429Z,30.20
2018-04-09T13:41:46.868Z,29.30
2018-04-09T13:44:16.093Z,29.50
2018-04-09T13:46:44.537Z,29.50
2018-04-09T13:49:13.997Z,29.80
2018-04-09T13:51:43.194Z,29.70
2018-04-09T13:54:12.804Z,29.00
2018-04-09T13:56:41.254Z,29.00
2018-04-09T13:59:10.448Z,28.40
2018-04-09T14:01:39.657Z,28.90
2018-04-09T14:04:08.877Z,28.50
2018-04-09T14:06:38.088Z,29.20
2018-04-09T14:09:05.868Z,28.80
2018-04-09T14:11:34.319Z,29.30
2018-04-09T14:14:02.757Z,29.30
2018-04-09T14:16:31.207Z,29.20
2018-04-09T14:18:59.651Z,29.20
2018-04-09T14:21:28.123Z,29.60
2018-04-09T14:23:57.332Z,29.70
2018-04-09T14:26:25.884Z,29.70
2018-04-09T14:28:54.325Z,29.80
2018-04-09T14:31:22.801Z,29.90
2018-04-09T14:33:51.257Z,30.00
2018-04-09T14:36:20.477Z,30.00
2018-04-09T14:38:48.921Z,30.00
2018-04-09T14:41:17.369Z,30.20
2018-04-09T14:43:45.584Z,29.90
2018-04-09T14:46:14.788Z,30.00
2018-04-09T14:48:44.005Z,30.00
2018-04-09T14:51:12.461Z,30.00
2018-04-09T14:53:41.678Z,30.40
2018-04-09T14:56:09.797Z,30.30
2018-04-09T14:58:38.238Z,30.90
2018-04-09T15:01:06.681Z,30.90
2018-04-09T15:03:35.169Z,31.10
2018-04-09T15:06:03.764Z,31.00
2018-04-09T15:08:32.973Z,32.50
2018-04-09T15:11:02.188Z,33.10
2018-04-09T15:13:30.623Z,33.10
2018-04-09T15:15:59.062Z,33.50
2018-04-09T15:18:27.535Z,33.60
2018-04-09T15:20:56.153Z,33.80
2018-04-09T15:23:24.601Z,33.80
2018-04-09T15:25:53.048Z,34.20
2018-04-09T15:28:22.294Z,34.70
2018-04-09T15:30:51.664Z,35.00
2018-04-09T15:33:20.916Z,35.20
2018-04-09T15:35:49.530Z,35.10
2018-04-09T15:38:17.984Z,35.40
2018-04-09T15:40:46.435Z,35.70
2018-04-09T15:43:14.890Z,35.90
2018-04-09T15:45:44.540Z,36.50
2018-04-09T15:48:12.991Z,36.50
2018-04-09T15:50:42.219Z,37.00
2018-04-09T15:53:10.663Z,37.00
2018-04-09T15:55:39.105Z,37.30
2018-04-09T15:58:07.553Z,37.70
2018-04-09T16:00:35.993Z,38.10
2018-04-09T16:03:03.896Z,38.60
2018-04-09T16:05:32.116Z,38.60
2018-04-09T16:08:00.565Z,39.20
2018-04-09T16:10:29.633Z,39.50
2018-04-09T16:12:59.455Z,39.70
2018-04-09T16:15:27.904Z,39.70
2018-04-09T16:18:04.588Z,39.80
2018-04-09T16:20:33.037Z,40.30
2018-04-09T16:23:01.268Z,40.30
2018-04-09T16:25:30.519Z,40.60
2018-04-09T16:27:58.984Z,40.60
2018-04-09T16:30:27.442Z,40.60
2018-04-09T16:32:56.944Z,41.60
2018-04-09T16:35:25.442Z,40.90
2018-04-09T16:37:54.050Z,41.00
2018-04-09T16:40:22.509Z,41.10
2018-04-09T16:42:51.806Z,41.40
2018-04-09T16:45:20.264Z,41.40
2018-04-09T16:47:48.753Z,41.30
2018-04-09T16:50:17.236Z,41.60
2018-04-09T16:52:46.450Z,41.80
2018-04-09T16:55:14.683Z,41.80
2018-04-09T16:57:43.133Z,41.80
2018-04-09T17:00:11.870Z,41.80
2018-04-09T17:02:40.597Z,42.00
2018-04-09T17:05:10.097Z,41.30
2018-04-09T17:07:39.597Z,40.80
2018-04-09T17:10:09.105Z,41.30
2018-04-09T17:12:38.361Z,41.10
2018-04-09T17:15:07.085Z,41.00
2018-04-09T17:17:36.581Z,41.50
2018-04-09T17:20:04.373Z,41.50
2018-04-09T17:22:32.824Z,41.80
2018-04-09T17:25:01.541Z,42.00
2018-04-09T17:27:30.289Z,42.20
2018-04-09T17:29:59.033Z,42.20
2018-04-09T17:32:27.790Z,42.40
2018-04-09T17:34:56.508Z,42.70
2018-04-09T17:37:25.224Z,42.80
2018-04-09T17:39:53.954Z,43.10
2018-04-09T17:42:22.681Z,43.20
2018-04-09T17:44:51.418Z,43.40
2018-04-09T17:47:20.146Z,43.60
2018-04-09T17:49:48.899Z,43.80
2018-04-09T17:52:18.340Z,44.30
2018-04-09T17:54:46.850Z,45.20
2018-04-09T17:57:15.303Z,44.90
2018-04-09T17:59:50.286Z,45.40
2018-04-09T18:02:20.067Z,45.60
2018-04-09T18:07:42.782Z,46.20
2018-04-09T18:10:21.336Z,46.50
2018-04-09T18:12:50.213Z,46.80
2018-04-09T18:27:13.069Z,47.60
2018-04-09T18:29:41.804Z,47.30
2018-04-09T18:32:10.533Z,47.50
2018-04-09T18:34:39.268Z,48.30
2018-04-09T18:37:08.013Z,48.60
2018-04-09T18:39:37.491Z,48.80
2018-04-09T18:42:06.217Z,48.50
2018-04-09T18:44:34.958Z,48.40
2018-04-09T18:47:03.709Z,48.40
2018-04-09T18:49:32.493Z,48.90
2018-04-09T18:52:01.221Z,49.20
2018-04-09T18:54:30.594Z,49.20
2018-04-09T18:56:59.347Z,49.60
2018-04-09T18:59:28.897Z,49.30
2018-04-09T19:01:57.654Z,49.20
2018-04-09T19:04:27.321Z,49.10
2018-04-09T19:06:58.069Z,49.10
2018-04-09T19:09:26.841Z,49.20
2018-04-09T19:11:55.596Z,49.50
2018-04-09T19:14:24.874Z,49.90
2018-04-09T19:16:53.613Z,50.10
2018-04-09T19:19:22.342Z,50.20
2018-04-09T19:21:51.896Z,50.30
2018-04-09T19:24:20.631Z,50.20
2018-04-09T19:26:50.142Z,50.90
2018-04-09T19:29:18.879Z,50.90
2018-04-09T19:31:47.278Z,51.40
2018-04-09T19:34:16.340Z,51.90
2018-04-09T19:36:50.523Z,51.50
2018-04-09T19:39:26.968Z,51.50
2018-04-09T19:47:38.209Z,52.20
2018-04-09T19:50:07.386Z,52.50
2018-04-09T19:52:36.621Z,52.50
2018-04-09T19:55:04.779Z,53.20
2018-04-09T19:57:34.282Z,53.90
2018-04-09T20:00:05.349Z,54.50
2018-04-09T20:02:33.890Z,54.50
2018-04-09T20:05:03.065Z,54.80
2018-04-09T20:07:32.315Z,55.10
2018-04-09T20:10:02.721Z,56.30
2018-04-09T20:12:31.460Z,56.30
2018-04-09T20:15:01.864Z,57.20
2018-04-09T20:17:32.335Z,59.00
2018-04-09T20:20:01.187Z,59.00
2018-04-09T20:22:31.218Z,59.60
2018-04-09T20:24:59.714Z,60.90
2018-04-09T20:27:29.078Z,61.40
2018-04-09T20:29:59.514Z,63.70
2018-04-09T20:32:28.249Z,63.70
2018-04-09T20:34:57.670Z,65.10
2018-04-09T20:37:29.233Z,65.80
2018-04-09T20:39:59.235Z,67.00
2018-04-09T20:42:28.636Z,67.60
2018-04-09T20:44:57.401Z,69.20
2018-04-09T20:47:26.139Z,70.60
2018-04-09T20:49:54.873Z,71.70
2018-04-09T20:52:23.030Z,73.00
2018-04-09T20:54:53.021Z,73.90
2018-04-09T20:57:21.740Z,75.00
2018-04-09T20:59:50.460Z,76.40
2018-04-09T21:02:19.190Z,77.50
2018-04-09T21:04:48.717Z,78.80
2018-04-09T21:07:18.361Z,78.80
2018-04-09T21:09:47.086Z,79.50
2018-04-09T21:12:15.504Z,80.20
2018-04-09T21:14:45.382Z,80.50
2018-04-09T21:17:14.117Z,81.30
2018-04-09T21:19:42.845Z,82.10
2018-04-09T21:22:11.590Z,83.10
2018-04-09T21:24:40.324Z,83.50
2018-04-09T21:27:09.064Z,84.60
2018-04-09T21:29:37.781Z,85.20
2018-04-09T21:32:06.534Z,86.50
2018-04-09T21:34:35.793Z,88.00
2018-04-09T21:37:04.526Z,89.50
2018-04-09T21:39:33.254Z,89.70
2018-04-09T21:42:01.765Z,90.40
2018-04-09T21:44:31.262Z,91.00
2018-04-09T21:47:00.765Z,91.30
2018-04-09T21:49:30.360Z,91.30
2018-04-09T21:51:59.091Z,91.10
2018-04-09T21:54:27.816Z,91.80
2018-04-09T21:56:56.552Z,92.80
2018-04-09T21:59:26.075Z,92.90
2018-04-09T22:01:54.809Z,92.90
2018-04-09T22:04:23.544Z,93.40
2018-04-09T22:06:53.039Z,94.40
2018-04-09T22:09:22.324Z,94.60
2018-04-09T22:11:50.737Z,94.70
2018-04-09T22:14:20.489Z,94.80
2018-04-09T22:16:49.224Z,95.30
2018-04-09T22:19:18.715Z,95.50
2018-04-09T22:21:47.458Z,95.50
2018-04-09T22:24:16.185Z,95.10
2018-04-09T22:26:45.441Z,95.20
2018-04-09T22:29:13.942Z,94.80
2018-04-09T22:31:42.678Z,95.40
2018-04-09T22:34:12.173Z,95.80
2018-04-09T22:36:41.661Z,95.60
2018-04-09T22:39:10.398Z,95.50
2018-04-09T22:41:40.083Z,95.80
2018-04-09T22:44:10.462Z,96.00
2018-04-09T22:46:39.189Z,96.00
2018-04-09T22:49:07.960Z,96.10
2018-04-09T22:51:36.699Z,96.30
2018-04-09T22:54:05.430Z,96.30
2018-04-09T22:56:33.950Z,96.80
2018-04-09T22:59:03.443Z,97.20
2018-04-09T23:01:32.952Z,97.20
2018-04-09T23:04:01.681Z,97.20
2018-04-09T23:06:30.085Z,97.40
2018-04-09T23:08:58.809Z,97.70
2018-04-09T23:11:27.557Z,97.90
2018-04-09T23:13:56.293Z,98.00
2018-04-09T23:16:25.767Z,98.60
2018-04-09T23:18:54.500Z,98.60
2018-04-09T23:21:23.757Z,98.80
2018-04-09T23:23:52.262Z,98.80
2018-04-09T23:26:22.492Z,99.50
2018-04-09T23:28:51.996Z,99.00
2018-04-09T23:31:20.712Z,99.00
2018-04-09T23:33:49.437Z,99.50
2018-04-09T23:36:18.165Z,99.70
2018-04-09T23:38:47.657Z,99.90
2018-04-09T23:41:16.388Z,99.90
2018-04-09T23:43:45.112Z,99.90
2018-04-09T23:46:14.505Z,99.90
2018-04-09T23:48:44.171Z,99.90
2018-04-09T23:51:13.663Z,99.90
2018-04-09T23:53:43.152Z,99.90
2018-04-09T23:56:11.880Z,99.90
2018-04-09T23:58:40.597Z,99.90
